Conifer, New York
Current Conditions -  °F | °C
As of 3:03 PM on Saturday 25 Oct 2014 (Local Time) from KSLK Reporting Station
Overcast Overcast  
Wind Chill: 53°   Ceiling: 3500
Heat Index: 53°   Visibility: 10mi
Dew Point: 45°   Wind: 9mph
Humidity: 74%   Direction: 210°SSW
Pressure: 29.57"   Gusts: NA
Location:  44.162°N, 74.433°W
Report Text: KSLK 251903Z AUTO 21008KT 10SM SCT028 BKN035 OVC044 12/07 A2957 RMK AO2 T01170072
Loading
Personal Weather Stations






























Interactive Weather Map
Tropical Storm Tracking
New forecast layout! Learn more

10-Day Weather Forecast

Advertisements
Track Severe Weather on mobile